Tiempo atmosférico en la estación meteorológica de Fuerteventura Aeropuerto, Las Palmas (25 m.)



Fecha
DESCASC
Temp. máxima en grados centígrados (hora)
DESCASC
Temp. mínima en grados centígrados (hora)
DESCASC
Temp. media en grados centígrados
DESCASC
Racha de viento máxima en m/sg (hora)
DESCASC
Velocidad máxima media en intervalos de 10 minutos(hora)
DESCASC
Precipitaciones diarias en mm
DESCASC
Precipitaciones de 00:00 a 06:00 en mm
DESCASC
Precipitaciones de 06:00 a 12:00 en mm
DESCASC
Precipitaciones de 12:00 a 18:00 en mm
DESCASC
Precipitaciones de 18:00 a 24:00 en mm
DESCASC
05-12-2019 20.9 (13:50) 15.8 (06:30) 18.3 15.28 (14:00) 10.83 (02:00) 8.2 5.3 0.7 2.2 0
04-12-2019 22.8 (14:30) 14.5 (07:40) 18.6 13.89 (12:50) 8.33 (13:00) 0.1 0 0 0 0.1
03-12-2019 23 (11:10) 17.3 (00:00) 20.1 15 (14:40) 10.28 (12:40) 0 0 0 0 0
02-12-2019 22.9 (11:50) 17.5 (00:00) 20.2 13.89 (14:30) 10 (10:00) 0.1 0 0 0.1 0
01-12-2019 22.6 (13:50) 18 (00:00) 20.3 10.28 (16:30) 8.33 (16:30) 0 0 0 0 0
30-11-2019 23.1 (14:10) 17.5 (00:00) 20.3 9.72 (23:40) 7.78 (23:50) 0 0 0 0 0
29-11-2019 22.7 (14:40) 17.7 (00:00) 20.2 7.78 (01:40) 6.67 (02:20) 0 0 0 0 0
28-11-2019 22 (14:30) 18.9 (00:00) 20.4 9.72 (00:10) 7.78 (00:10) 0 0 0 0 0
27-11-2019 22.4 (13:30) 19.1 (00:00) 20.8 11.39 (01:40) 8.61 (20:50) 0 0 0 0 0
26-11-2019 22 (13:30) 18.6 (00:00) 20.3 10.28 (05:20) 8.33 (20:40) 0 0 0 0 0
25-11-2019 22.3 (13:50) 18.4 (00:00) 20.3 11.39 (19:40) 8.89 (19:50) 0 0 0 0 0
24-11-2019 23.3 (12:40) 18.6 (00:00) 20.9 12.5 (20:50) 9.44 (21:00) 0 0 0 0 0
23-11-2019 25.5 (13:20) 18.9 (00:00) 22.2 13.33 (14:20) 10 (14:20) 0 0 0 0 0
22-11-2019 25.4 (14:00) 18.5 (00:00) 21.9 11.67 (14:00) 6.67 (20:00) 0 0 0 0 0
21-11-2019 24.3 (15:00) 17.4 (00:00) 20.8 12.5 (12:30) 6.39 (15:50) 0.1 0.1 0 0 0
20-11-2019 24 (13:50) 15.6 (00:00) 19.8 11.39 (13:30) 7.78 (20:00) 0.5 0.5 0 0 0
19-11-2019 24.2 (15:00) 15.9 (00:00) 20.1 10.83 (15:40) 8.06 (15:40) 0.2 0.2 0 0 0
18-11-2019 21.2 (12:00) 16.4 (00:00) 18.8 10.83 (01:30) 8.61 (01:40) 0 0 0 0 0
17-11-2019 20.9 (12:10) 16.4 (00:00) 18.6 15 (00:10) 11.67 (00:10) 0 0 0 0 0
16-11-2019 22.6 (12:20) 16.6 (00:00) 19.6 16.39 (12:40) 12.78 (16:00) 0 0 0 0 0
15-11-2019 22.4 (13:40) 16.7 (00:00) 19.6 16.11 (16:10) 11.94 (01:30) 0.5 0 0.5 0 0
14-11-2019 23.6 (13:20) 18.6 (00:00) 21.1 13.89 (19:40) 11.39 (19:40) 0 0 0 0 0
13-11-2019 23.5 (16:00) 18.8 (00:00) 21.1 16.94 (10:00) 13.33 (10:00) 0 0 0 0 0
12-11-2019 25 (13:40) 19.1 (00:00) 22.1 18.06 (05:30) 14.44 (08:40) -- 0 -- 0 0
11-11-2019 24.5 (13:30) 19.6 (02:20) 22.1 21.11 (16:30) 15.83 (16:30) 0 0 0 0 0
10-11-2019 23.2 (13:40) 19.1 (00:00) 21.2 16.94 (03:00) 13.89 (03:30) 0 0 0 0 0
09-11-2019 22.9 (13:20) 19.1 (00:00) 21 18.06 (13:30) 14.17 (16:50) 0 0 0 0 0
08-11-2019 23.7 (13:00) 19.8 (00:00) 21.8 17.5 (13:30) 14.17 (15:50) 0 0 0 0 0
07-11-2019 23.7 (13:10) 19.9 (00:00) 21.8 16.11 (13:50) 13.33 (15:00) 0 0 0 0 0
06-11-2019 25.2 (12:30) 18.9 (00:00) 22.1 15.28 (18:00) 12.78 (18:00) 0 0 0 0 0

Gráficas

Temp. máximas Temp. mínimas Temp. medias Precipitaciones Rachas de viento máximas Velocidades máximas media en intervalos de 10 minutos

Datos horarios

Fecha y hora oficial Temperatura (ºC) Velocidad del viento (km/h) Dirección del viento Racha (km/h) Dirección de racha Precipitación (mm) Presión (hPa) Tendencia (hPa) Humedad (%)
2019-12-05 23:00:00 17.2 22 Noroeste 35 Noroeste 0 1009.7 0.7 71
2019-12-05 22:00:00 17.2 21 Noroeste 33 Norte 0 1009.4 1 72
2019-12-05 21:00:00 17.2 21 Noroeste 39 Oeste 0 1009.3 1.5 72
2019-12-05 20:00:00 17.1 19 Noroeste 32 Noroeste 0 1009 1.3 69
2019-12-05 19:00:00 17.4 22 Noroeste 33 Noroeste 0 1008.4 0.9 73
2019-12-05 18:00:00 17.4 20 Noroeste 39 Norte 0 1007.8 0.3 71
2019-12-05 17:00:00 18.3 25 Norte 42 Norte 0 1007.7 0 72
2019-12-05 16:00:00 18.5 30 Norte 48 Norte 0 1007.5 -0.5 76
2019-12-05 15:00:00 18.4 33 Norte 48 Norte 0.2 1007.5 -1.4 73
2019-12-05 14:00:00 18.8 35 Norte 55 Norte 2 1007.7 -1.7 78
2019-12-05 13:00:00 20.1 30 Noroeste 54 Noroeste 0 1008 -1.7 62
2019-12-05 12:00:00 20 36 Noroeste 48 Noroeste 0 1008.9 -0.3 61
2019-12-05 11:00:00 19.6 26 Noroeste 39 Noroeste 0 1009.4 0.5 66
2019-12-05 10:00:00 18.7 23 Noroeste 37 Noroeste 0.2 1009.7 1.1 75
2019-12-05 09:00:00 17.8 19 Noroeste 33 Norte 0 1009.2 1.3 73
2019-12-05 08:00:00 16.6 25 Noroeste 37 Norte 0 1008.9 1 71
2019-12-05 07:00:00 16.3 25 Noroeste 41 Norte 0.5 1008.6 0.2 75
2019-12-05 06:00:00 16.8 33 Noroeste 46 Noroeste 0 1007.9 -1.2 69
2019-12-05 05:00:00 16.9 35 Noroeste 46 Norte 0 1007.9 -1.5 69
2019-12-05 04:00:00 16.9 26 Noroeste 42 Noroeste 0 1008.4 -1.1 72
2019-12-05 03:00:00 16.4 32 Norte 48 Noroeste 0 1009.1 -1.2 84
2019-12-05 02:00:00 16.8 39 Norte 54 Norte 1 1009.4 -1.9 88
2019-12-05 01:00:00 17.6 18 Oeste 35 Oeste 4.3 1009.5 -2.5 90
2019-12-05 00:00:00 18.5 8 Sudoeste 15 Sudoeste 0 1010.3 -2 77
2019-12-04 23:00:00 17.5 3 Sur 11 Sur 0 1011.3 -1.6 82
2019-12-04 22:00:00 17.7 8 Sur 11 Sur 0 1012 -0.4 82
2019-12-04 21:00:00 18.3 5 Sudoeste 24 Noroeste 0.1 1012.3 -0.2 83
2019-12-04 20:00:00 18.6 5 Noroeste 21 Noroeste 0 1012.9 0.2 73
2019-12-04 19:00:00 18.7 13 Oeste 26 Oeste 0 1012.4 -0.3 74
2019-12-04 18:00:00 19.1 15 Oeste 35 Noroeste 0 1012.5 -0.1 72
2019-12-04 17:00:00 20.1 19 Noroeste 33 Noroeste 0 1012.7 -0.2 68
2019-12-04 16:00:00 21.6 23 Noroeste 35 Oeste 0 1012.7 -1.3 53
2019-12-04 15:00:00 22.7 22 Noroeste 35 Noroeste 0 1012.6 -2.5 48
2019-12-04 14:00:00 22.1 21 Noroeste 33 Noroeste 0 1012.9 -3.2 49
2019-12-04 13:00:00 22.3 30 Norte 50 Noroeste 0 1014 -2.2 44
2019-12-04 12:00:00 21.8 23 Norte 37 Norte 0 1015.1 -0.4 47
2019-12-04 11:00:00 20.6 18 Norte 39 Noroeste 0 1016.1 0.9 59
2019-12-04 10:00:00 18.9 20 Oeste 32 Oeste 0 1016.2 1.3 68
2019-12-04 09:00:00 17.8 9 Oeste 24 Oeste 0 1015.5 1.3 71
2019-12-04 08:00:00 14.8 12 Oeste 21 Oeste 0 1015.2 1.1 79
2019-12-04 07:00:00 14.9 13 Noroeste 17 Noroeste 0 1014.9 0.3 79
2019-12-04 06:00:00 15.5 13 Noroeste 17 Noroeste 0 1014.2 -0.4 78
2019-12-04 05:00:00 16.1 13 Noroeste 15 Noroeste 0 1014.1 -0.6 76
2019-12-04 04:00:00 16.6 11 Noroeste 15 Noroeste 0 1014.6 -0.4 78
2019-12-04 03:00:00 17.6 14 Noroeste 18 Noroeste 0 1014.6 -0.9 76
2019-12-04 02:00:00 17.6 13 Norte 21 Norte 0 1014.7 -1 76
2019-12-04 01:00:00 17.3 12 Oeste 30 Noroeste 0 1015 -0.2 84
2019-12-04 00:00:00 17.7 10 Noroeste 15 Norte 0 1015.5 0.8 72
2019-12-03 23:00:00 18.4 13 Noroeste 26 Noroeste 0 1015.7 1.4 72
2019-12-03 22:00:00 18.6 17 Norte 30 Norte 0 1015.2 1.4 70
2019-12-03 21:00:00 18.5 16 Norte 26 Norte 0 1014.7 1.7 68
2019-12-03 20:00:00 18.9 15 Norte 28 Noroeste 0 1014.3 1.4 65
2019-12-03 19:00:00 19.3 16 Norte 28 Norte 0 1013.8 1.1 63
2019-12-03 18:00:00 19.9 23 Norte 35 Norte 0 1013 0.6 60
2019-12-03 17:00:00 20.5 23 Norte 45 Norte 0 1012.9 0.9 55
2019-12-03 16:00:00 20.9 27 Noroeste 42 Noroeste 0 1012.7 0.1 58
2019-12-03 15:00:00 20.2 31 Noroeste 54 Noroeste 0 1012.4 -0.5 60
2019-12-03 14:00:00 21.2 26 Noroeste 46 Norte 0 1012 -1 56
2019-12-03 13:00:00 21.3 27 Norte 52 Norte 0 1012.6 -0.3 55
2019-12-03 12:00:00 22.4 33 Noroeste 48 Noroeste 0 1012.9 0.6 48
2019-12-03 11:00:00 21.9 30 Norte 52 Noroeste 0 1013 1.3 43
2019-12-03 10:00:00 20.5 31 Norte 48 Norte 0 1012.9 1.9 50
2019-12-03 09:00:00 19.3 20 Noroeste 28 Noroeste 0 1012.3 1.9 60
2019-12-03 08:00:00 18.1 26 Norte 45 Norte 0 1011.7 1.5 66
2019-12-03 07:00:00 17.7 21 Norte 33 Noroeste 0 1011 0.8 61
2019-12-03 06:00:00 18.6 29 Noroeste 41 Noroeste 0 1010.4 0.2 58
2019-12-03 05:00:00 18.4 22 Noroeste 35 Norte 0 1010.2 -0.2 61
2019-12-03 04:00:00 18.2 27 Norte 33 Norte 0 1010.2 -0.4 64
2019-12-03 03:00:00 17.6 18 Norte 33 Norte 0 1010.2 -1.1 67
2019-12-03 02:00:00 18 20 Noroeste 35 Norte 0 1010.4 -1.4 64
2019-12-03 01:00:00 18.2 22 Noroeste 30 Noroeste 0 1010.6 -1.4 65
2019-12-03 00:00:00 18.8 22 Noroeste 30 Noroeste 0 1011.3 -0.6 64
2019-12-02 23:00:00 18 14 Noroeste 26 Noroeste 0 1011.8 0.2 69
2019-12-02 22:00:00 18.2 21 Noroeste 39 Norte 0 1012 0.7 69
2019-12-02 21:00:00 18.7 17 Noroeste 28 Norte 0 1011.9 0.8 64
2019-12-02 20:00:00 19 23 Norte 39 Norte 0 1011.6 1 62
2019-12-02 19:00:00 19 19 Noroeste 39 Noroeste 0 1011.3 0.6 66
2019-12-02 18:00:00 18.7 23 Noroeste 45 Noroeste 0 1011.1 0.2 74
2019-12-02 17:00:00 20.2 23 Noroeste 39 Noroeste 0 1010.6 -0.8 65
2019-12-02 16:00:00 20.6 34 Norte 50 Norte 0 1010.7 -1.5 60
2019-12-02 15:00:00 20.9 25 Norte 50 Noroeste 0 1010.9 -2.1 64
2019-12-02 14:00:00 20.3 17 Norte 42 Noroeste 0.1 1011.4 -2.5 74
2019-12-02 13:00:00 22.2 30 Noroeste 48 Noroeste 0 1012.2 -2.2 57
2019-12-02 12:00:00 22.2 30 Noroeste 41 Noroeste 0 1013 -1.1 50
2019-12-02 11:00:00 21.9 27 Noroeste 46 Norte 0 1013.9 0 50
2019-12-02 10:00:00 20.8 36 Noroeste 48 Noroeste 0 1014.4 0.7 54
2019-12-02 09:00:00 19.5 25 Norte 35 Noroeste 0 1014.1 0.4 62
2019-12-02 08:00:00 18.2 22 Norte 33 Noroeste 0 1013.9 0 62
2019-12-02 07:00:00 17.6 19 Norte 28 Noroeste 0 1013.7 -0.7 68
2019-12-02 06:00:00 17.8 16 Norte 26 Norte 0 1013.7 -1 71
2019-12-02 05:00:00 18.5 18 Norte 26 Norte 0 1013.9 -1 76
2019-12-02 04:00:00 18.4 12 Noroeste 22 Norte 0 1014.4 -0.8 78
2019-12-02 03:00:00 18.6 18 Norte 30 Norte 0 1014.7 -1 77
2019-12-02 02:00:00 19 15 Norte 33 Norte 0 1014.9 -1.5 79
2019-12-02 01:00:00 19.1 20 Norte 26 Norte 0 1015.2 -1.3 80
2019-12-02 00:00:00 18.6 12 Noroeste 18 Noroeste 0 1015.7 -0.8 76
2019-12-01 23:00:00 18.2 11 Norte 18 Noroeste 0 1016.4 -0.1 76
2019-12-01 22:00:00 18.3 14 Noroeste 26 Norte 0 1016.5 -0.1 73
2019-12-01 21:00:00 18.8 14 Noroeste 30 Noroeste 0 1016.5 -0.1 73
2019-12-01 20:00:00 19.3 10 Norte 24 Nordeste 0 1016.5 -0.1 72
2019-12-01 19:00:00 19.9 19 Nordeste 30 Nordeste 0 1016.6 0 75
2019-12-01 18:00:00 20.4 24 Nordeste 35 Nordeste 0 1016.6 -0.3 71
2019-12-01 17:00:00 21.1 27 Nordeste 37 Nordeste 0 1016.6 -0.5 70
2019-12-01 16:00:00 21.8 23 Nordeste 30 Nordeste 0 1016.6 -1.2 65
2019-12-01 15:00:00 22.2 23 Nordeste 32 Nordeste 0 1016.9 -1.6 64
2019-12-01 14:00:00 22.2 23 Nordeste 30 Nordeste 0 1017.1 -2 65
2019-12-01 13:00:00 21.8 18 Nordeste 26 Nordeste 0 1017.8 -1.1 69
2019-12-01 12:00:00 21.6 19 Nordeste 30 Nordeste 0 1018.5 0.2 70
2019-12-01 11:00:00 21.2 22 Nordeste 30 Nordeste 0 1019.1 1.1 71
2019-12-01 10:00:00 20.6 22 Nordeste 28 Nordeste 0 1018.9 1.4 74
2019-12-01 09:00:00 19.6 21 Nordeste 30 Nordeste 0 1018.3 1.1 79
2019-12-01 08:00:00 19.3 24 Nordeste 33 Nordeste 0 1018 0.9 79
2019-12-01 07:00:00 19.3 27 Nordeste 33 Nordeste 0 1017.5 0.3 79
2019-12-01 06:00:00 19.3 24 Nordeste 32 Nordeste 0 1017.2 -0.1 81
2019-12-01 05:00:00 19.4 25 Nordeste 33 Nordeste 0 1017.1 -0.6 81
2019-12-01 04:00:00 19.5 27 Nordeste 35 Nordeste 0 1017.2 -0.7 81
2019-12-01 03:00:00 19.6 26 Nordeste 35 Nordeste 0 1017.3 -1 83
2019-12-01 02:00:00 19.7 27 Nordeste 35 Nordeste 0 1017.7 -0.7 84
2019-12-01 01:00:00 19.7 26 Nordeste 35 Nordeste 0 1017.9 -0.3 84
2019-12-01 00:00:00 19.7 27 Nordeste 35 Norte 0 1018.3 0.1 86
2019-11-30 23:00:00 19.7 24 Nordeste 30 Nordeste 0 1018.4 0.5 88
2019-11-30 22:00:00 19.6 17 Norte 26 Norte 0 1018.2 0.5 89
2019-11-30 21:00:00 19.8 22 Norte 28 Norte 0 1018.2 0.9 88
2019-11-30 20:00:00 20.1 18 Nordeste 26 Nordeste 0 1017.9 0.9 87
2019-11-30 19:00:00 20.6 16 Nordeste 24 Nordeste 0 1017.7 0.8 87
2019-11-30 18:00:00 20.9 18 Nordeste 28 Nordeste 0 1017.3 0.4 86
2019-11-30 17:00:00 21.7 23 Nordeste 30 Nordeste 0 1017 0 82
2019-11-30 16:00:00 22.5 22 Nordeste 30 Nordeste 0 1016.9 -0.5 78
2019-11-30 15:00:00 22.9 19 Nordeste 26 Nordeste 0 1016.9 -1.3 73
2019-11-30 14:00:00 22.8 19 Nordeste 26 Nordeste 0 1017 -1.6 73
2019-11-30 13:00:00 22.5 14 Nordeste 21 Norte 0 1017.4 -0.9 76
2019-11-30 12:00:00 22.4 11 Nordeste 18 Nordeste 0 1018.2 0.5 73
2019-11-30 11:00:00 22.1 12 Nordeste 21 Norte 0 1018.6 1.4 72
2019-11-30 10:00:00 21.8 15 Norte 21 Norte 0 1018.3 1.6 72
2019-11-30 09:00:00 20 13 Norte 22 Norte 0 1017.7 1.4 79
2019-11-30 08:00:00 18 15 Noroeste 24 Noroeste 0 1017.2 1.3 82
2019-11-30 07:00:00 17.7 16 Noroeste 18 Noroeste 0 1016.7 0.6 86
2019-11-30 06:00:00 17.6 15 Noroeste 18 Noroeste 0 1016.3 0.1 88
2019-11-30 05:00:00 17.9 16 Norte 22 Norte 0 1015.9 -0.4 88
2019-11-30 04:00:00 18.1 18 Norte 21 Norte 0 1016.1 -0.4 91
2019-11-30 03:00:00 18.1 15 Norte 21 Noroeste 0 1016.2 -0.1 90
2019-11-30 02:00:00 18.4 13 Norte 17 Norte 0 1016.3 0 91
2019-11-30 01:00:00 19 13 Norte 18 Norte 0 1016.5 0.5 91
2019-11-30 00:00:00 19.1 14 Norte 21 Norte 0 1016.3 0.5 91
2019-11-29 23:00:00 19.3 14 Norte 22 Norte 0 1016.3 1.1 89
2019-11-29 22:00:00 19.6 17 Norte 21 Norte 0 1016 1.3 89
2019-11-29 21:00:00 19.8 14 Norte 21 Norte 0 1015.8 1.7 88
2019-11-29 20:00:00 20.2 15 Norte 24 Nordeste 0 1015.2 1.2 86
2019-11-29 19:00:00 20.7 17 Norte 26 Norte 0 1014.7 0.7 85
2019-11-29 18:00:00 21.2 19 Norte 26 Norte 0 1014.1 0 82
2019-11-29 17:00:00 21.9 20 Norte 24 Norte 0 1014 -0.4 76
2019-11-29 16:00:00 21.8 15 Nordeste 21 Nordeste 0 1014 -1.2 78
2019-11-29 15:00:00 22.2 15 Nordeste 22 Nordeste 0 1014.1 -1.8 74
2019-11-29 14:00:00 22.2 13 Nordeste 18 Nordeste 0 1014.4 -1.7 74
2019-11-29 13:00:00 22.3 15 Nordeste 22 Nordeste 0 1015.2 -0.9 73
2019-11-29 12:00:00 22.2 16 Nordeste 22 Nordeste 0 1015.9 0.3 73
2019-11-29 11:00:00 22.1 15 Nordeste 24 Norte 0 1016.1 1.1 72
2019-11-29 10:00:00 21.5 15 Nordeste 22 Nordeste 0 1016.1 1.8 75
2019-11-29 09:00:00 19.7 13 Norte 22 Norte 0 1015.6 1.9 83
2019-11-29 08:00:00 18.3 15 Norte 26 Noroeste 0 1015 1.3 88
2019-11-29 07:00:00 17.8 14 Noroeste 18 Norte 0 1014.3 0.4 90
2019-11-29 06:00:00 17.9 13 Norte 22 Norte 0 1013.7 -0.4 91
2019-11-29 05:00:00 18.7 16 Norte 28 Nordeste 0 1013.7 -0.4 90
2019-11-29 04:00:00 19 19 Norte 26 Nordeste 0 1013.9 -0.1 89
2019-11-29 03:00:00 19.3 21 Nordeste 28 Nordeste 0 1014.1 -0.1 87
2019-11-29 02:00:00 19.8 21 Nordeste 28 Nordeste 0 1014.1 -0.6 86
2019-11-29 01:00:00 19.7 19 Norte 26 Norte 0 1014 -0.3 86
2019-11-29 00:00:00 19.5 20 Norte 26 Norte 0 1014.2 0 87
2019-11-28 23:00:00 19.8 19 Nordeste 28 Nordeste 0 1014.7 0.9 89
2019-11-28 22:00:00 19.9 23 Nordeste 30 Norte 0 1014.3 1.1 88
2019-11-28 21:00:00 19.8 21 Norte 30 Norte 0 1014.2 1.4 87
2019-11-28 20:00:00 20 23 Norte 30 Norte 0 1013.8 1.3 86
2019-11-28 19:00:00 20 22 Norte 30 Norte 0 1013.2 0.8 86
2019-11-28 18:00:00 20.2 21 Nordeste 30 Nordeste 0 1012.8 0.2 84
2019-11-28 17:00:00 20.6 22 Nordeste 28 Nordeste 0 1012.5 -0.5 82
2019-11-28 16:00:00 21 21 Nordeste 26 Nordeste 0 1012.4 -1.5 80
2019-11-28 15:00:00 21.8 19 Nordeste 26 Nordeste 0 1012.6 -2.3 76
2019-11-28 14:00:00 21.7 21 Nordeste 28 Norte 0 1013 -2.4 76
2019-11-28 13:00:00 21.7 20 Nordeste 28 Nordeste 0 1013.9 -1.4 75
2019-11-28 12:00:00 21.2 18 Nordeste 26 Nordeste 0 1014.9 0 75
2019-11-28 11:00:00 20.9 20 Nordeste 24 Nordeste 0 1015.4 1 76
2019-11-28 10:00:00 20.3 18 Nordeste 28 Nordeste 0 1015.3 1.5 77
2019-11-28 09:00:00 19.7 19 Nordeste 30 Nordeste 0 1014.9 1.6 80
2019-11-28 08:00:00 19.1 21 Nordeste 30 Nordeste 0 1014.4 1.2 82
2019-11-28 07:00:00 18.9 19 Nordeste 30 Nordeste 0 1013.8 0.5 82
2019-11-28 06:00:00 19 20 Nordeste 30 Nordeste 0 1013.3 0.2 81
2019-11-28 05:00:00 19 20 Nordeste 35 Nordeste 0 1013.2 -0.4 81
2019-11-28 04:00:00 19.1 23 Nordeste 32 Nordeste 0 1013.3 -0.9 82
2019-11-28 03:00:00 19.1 24 Nordeste 35 Nordeste 0 1013.1 -1.5 82
2019-11-28 02:00:00 19.4 26 Nordeste 35 Nordeste 0 1013.6 -1.1 81
2019-11-28 01:00:00 19.4 25 Nordeste 35 Nordeste 0 1014.2 -0.6 81
2019-11-28 00:00:00 19.2 29 Nordeste 37 Nordeste 0 1014.6 0.3 83
2019-11-27 23:00:00 19.2 29 Nordeste 37 Nordeste 0 1014.7 0.7 84
2019-11-27 22:00:00 19.3 27 Nordeste 37 Nordeste 0 1014.8 1.2 83
2019-11-27 21:00:00 19.4 27 Nordeste 37 Nordeste 0 1014.3 1 84
2019-11-27 20:00:00 19.6 28 Nordeste 35 Nordeste 0 1014 1 84
2019-11-27 19:00:00 19.8 22 Nordeste 30 Norte 0 1013.6 0.8 84
2019-11-27 18:00:00 20.1 21 Nordeste 28 Nordeste 0 1013.3 0.4 81
2019-11-27 17:00:00 20.8 21 Nordeste 28 Nordeste 0 1013 -0.2 77
2019-11-27 16:00:00 21.5 21 Nordeste 28 Nordeste 0 1012.8 -1.2 74
2019-11-27 15:00:00 21.7 21 Nordeste 28 Nordeste 0 1012.9 -2 73
2019-11-27 14:00:00 22.1 22 Nordeste 30 Nordeste 0 1013.2 -2.3 71
2019-11-27 13:00:00 22.1 21 Nordeste 32 Nordeste 0 1014 -1.4 70
2019-11-27 05:00:00 19.3 26 Nordeste 37 Nordeste 0 1013 -0.8 79
2019-11-27 04:00:00 19.3 27 Nordeste 37 Nordeste 0 1013.2 -1 80
2019-11-27 03:00:00 19.1 26 Nordeste 37 Nordeste 0 1013.5 -1.1 83
2019-11-27 02:00:00 19.3 30 Nordeste 41 Nordeste 0 1013.8 -1.1 82
2019-11-27 01:00:00 19.3 29 Nordeste 37 Nordeste 0 1014.2 -0.5 83
2019-11-27 00:00:00 19.4 27 Nordeste 33 Nordeste 0 1014.6 0.1 84
2019-11-26 23:00:00 19.4 27 Nordeste 35 Nordeste 0 1014.9 0.6 84
2019-11-26 22:00:00 19.5 25 Nordeste 33 Nordeste 0 1014.7 0.9 84
2019-11-26 21:00:00 19.6 27 Nordeste 35 Nordeste 0 1014.5 0.9 83
2019-11-26 20:00:00 19.8 26 Nordeste 33 Nordeste 0 1014.3 1 85
2019-11-26 19:00:00 19.9 24 Nordeste 33 Nordeste 0 1013.8 0.6 84
2019-11-26 18:00:00 20.4 25 Nordeste 30 Nordeste 0 1013.6 0.5 82
2019-11-26 17:00:00 21 22 Nordeste 30 Nordeste 0 1013.3 -0.1 78
2019-11-26 16:00:00 21.3 23 Nordeste 30 Nordeste 0 1013.2 -1.1 77
2019-11-26 15:00:00 21.8 21 Nordeste 28 Norte 0 1013.1 -2 75
2019-11-26 14:00:00 21.6 18 Nordeste 24 Norte 0 1013.4 -2 75
2019-11-26 13:00:00 21.7 17 Nordeste 24 Nordeste 0 1014.3 -1.1 73
2019-11-26 12:00:00 21.5 18 Nordeste 28 Nordeste 0 1015.1 0.4 73
2019-11-26 11:00:00 21.2 25 Nordeste 33 Nordeste 0 1015.4 1 73
2019-11-26 10:00:00 20.6 24 Nordeste 33 Nordeste 0 1015.4 1.4 75
2019-11-26 09:00:00 19.8 25 Nordeste 33 Nordeste 0 1014.7 0.9 78
2019-11-26 08:00:00 19 26 Nordeste 32 Nordeste 0 1014.4 0.7 81
2019-11-26 07:00:00 19.2 24 Nordeste 32 Nordeste 0 1014 0 82
2019-11-26 06:00:00 18.6 18 Norte 37 Nordeste 0 1013.8 -0.6 81
2019-11-26 05:00:00 19.1 26 Nordeste 32 Nordeste 0 1013.7 -1.1 82
2019-11-26 04:00:00 19.2 26 Nordeste 33 Nordeste 0 1014 -1 81
2019-11-26 03:00:00 19.2 23 Nordeste 30 Nordeste 0 1014.4 -1 81
2019-11-26 02:00:00 19.3 23 Nordeste 33 Nordeste 0 1014.8 -0.6 81
2019-11-26 01:00:00 19.5 23 Nordeste 33 Nordeste 0 1015 -0.7 80
2019-11-26 00:00:00 19.5 27 Nordeste 37 Nordeste 0 1015.4 -0.3 79
2019-11-25 23:00:00 19.4 31 Nordeste 41 Nordeste 0 1015.4 0 79
2019-11-25 22:00:00 19.4 26 Nordeste 33 Nordeste 0 1015.7 0.6 77
2019-11-25 21:00:00 19.7 26 Norte 35 Norte 0 1015.7 0.7 75
2019-11-25 20:00:00 19.9 31 Nordeste 41 Nordeste 0 1015.4 0.6 78
2019-11-25 19:00:00 20 27 Nordeste 35 Nordeste 0 1015.1 0.5 79
2019-11-25 18:00:00 20 24 Nordeste 30 Norte 0 1015 0.4 76
2019-11-25 17:00:00 20.4 20 Nordeste 30 Nordeste 0 1014.8 -0.3 75
2019-11-25 16:00:00 21.3 22 Nordeste 32 Nordeste 0 1014.6 -1.3 71
2019-11-25 15:00:00 21.7 23 Nordeste 32 Nordeste 0 1014.6 -1.9 68
2019-11-25 14:00:00 22.2 26 Nordeste 32 Nordeste 0 1015.1 -1.9 67
2019-11-25 13:00:00 21.7 24 Nordeste 35 Nordeste 0 1015.9 -1.1 66
2019-11-25 12:00:00 21.1 29 Nordeste 37 Nordeste 0 1016.5 0.2 69
2019-11-25 11:00:00 20.8 28 Nordeste 37 Nordeste 0 1017 1.2 70
2019-11-25 10:00:00 20.2 28 Nordeste 37 Norte 0 1017 1.8 73
2019-11-25 09:00:00 19.8 24 Nordeste 35 Nordeste 0 1016.3 1.4 74
2019-11-25 08:00:00 19.2 23 Norte 37 Norte 0 1015.8 1 72
2019-11-25 07:00:00 19.1 27 Norte 37 Norte 0 1015.2 0.3 72
2019-11-25 06:00:00 18.7 21 Norte 35 Norte 0 1014.9 -0.3 75
2019-11-25 05:00:00 18.7 18 Norte 30 Norte 0 1014.8 -0.7 74
2019-11-25 04:00:00 18.6 15 Norte 28 Norte 0 1014.9 -0.8 73
2019-11-25 03:00:00 18.6 20 Norte 30 Norte 0 1015.2 -1 74
2019-11-25 02:00:00 18.7 19 Norte 32 Norte 0 1015.5 -0.6 73
2019-11-25 01:00:00 18.8 23 Norte 33 Norte 0 1015.7 -0.5 73
2019-11-25 00:00:00 18.7 22 Norte 30 Norte 0 1016.2 0.1 71
2019-11-24 23:00:00 18.8 23 Norte 39 Norte 0 1016.1 0.4 69
2019-11-24 22:00:00 19.9 31 Norte 42 Norte 0 1016.2 0.8 67
2019-11-24 21:00:00 20.1 34 Norte 45 Norte 0 1016.1 1.3 66
2019-11-24 20:00:00 20.1 21 Norte 32 Norte 0 1015.7 1.1 67
2019-11-24 19:00:00 20.4 21 Norte 35 Norte 0 1015.4 1 64
2019-11-24 18:00:00 21.2 27 Norte 41 Norte 0 1014.8 0.3 61
2019-11-24 17:00:00 22.1 25 Norte 37 Norte 0 1014.6 -0.1 59
2019-11-24 16:00:00 22.6 28 Nordeste 35 Nordeste 0 1014.4 -1 60
2019-11-24 15:00:00 22.7 27 Nordeste 35 Nordeste 0 1014.5 -1.8 62
2019-11-24 14:00:00 22.9 26 Nordeste 35 Nordeste 0 1014.7 -2.1 62
2019-11-24 13:00:00 22.8 26 Nordeste 35 Nordeste 0 1015.4 -1.2 62
2019-11-24 12:00:00 23 27 Nordeste 35 Nordeste 0 1016.3 0.3 61
2019-11-24 11:00:00 22.3 27 Nordeste 37 Norte 0 1016.8 1.3 69
2019-11-24 10:00:00 21.5 24 Norte 33 Norte 0 1016.6 1.8 68
2019-11-24 09:00:00 19.9 26 Norte 37 Norte 0 1016 1.6 74
2019-11-24 08:00:00 19.2 21 Norte 33 Noroeste 0 1015.5 1.1 75
2019-11-24 07:00:00 19 16 Norte 33 Norte 0 1014.8 0.2 75
2019-11-24 06:00:00 19.5 22 Norte 30 Norte 0 1014.4 -0.4 78
2019-11-24 05:00:00 19.6 18 Norte 28 Norte 0 1014.4 -0.6 78
2019-11-24 04:00:00 19.5 18 Norte 22 Norte 0 1014.6 -0.5 78
2019-11-24 03:00:00 18.9 13 Noroeste 22 Norte 0 1014.8 -1 79
2019-11-24 02:00:00 19.5 13 Noroeste 30 Norte 0 1015 -1 79
2019-11-24 01:00:00 19 14 Norte 21 Norte 0 1015.1 -0.8 81
2019-11-24 00:00:00 19 14 Norte 17 Noroeste 0 1015.8 -0.1 80
2019-11-23 23:00:00 19.4 14 Norte 22 Norte 0 1016 0.6 79
2019-11-23 22:00:00 19.7 16 Norte 22 Norte 0 1015.9 1 77
2019-11-23 21:00:00 20.1 18 Norte 28 Norte 0 1015.9 1.8 76
2019-11-23 20:00:00 20.6 19 Norte 30 Norte 0 1015.4 1.8 76
2019-11-23 19:00:00 21 24 Norte 37 Noroeste 0 1014.9 1.4 72
2019-11-23 18:00:00 21.9 23 Norte 35 Noroeste 0 1014.1 0.9 66
2019-11-23 17:00:00 23.2 28 Norte 41 Norte 0 1013.6 0.2 66
2019-11-23 16:00:00 24.1 31 Norte 42 Norte 0 1013.5 -0.7 65
2019-11-23 15:00:00 24.3 31 Norte 48 Norte 0 1013.2 -2.2 66
2019-11-23 14:00:00 25.2 22 Noroeste 41 Norte 0 1013.4 -2.4 64
2019-11-23 13:00:00 24.7 22 Norte 32 Norte 0 1014.2 -1.5 64
2019-11-23 12:00:00 22.9 13 Noroeste 33 Oeste 0 1015.4 0.3 76
2019-11-23 11:00:00 23.5 15 Noroeste 30 Noroeste 0 1015.8 1.3 67
2019-11-23 10:00:00 22.9 17 Noroeste 35 Noroeste 0 1015.7 1.8 73
2019-11-23 09:00:00 21.7 9 Noroeste 26 Oeste 0 1015.1 1.6 81
2019-11-23 08:00:00 20.6 11 Oeste 24 Oeste 0 1014.5 1.1 88
2019-11-23 07:00:00 19.5 12 Oeste 17 Noroeste 0 1013.9 0.2 88
2019-11-23 06:00:00 19.9 13 Noroeste 18 Noroeste 0 1013.5 -0.5 88
2019-11-23 05:00:00 19 11 Oeste 17 Oeste 0 1013.4 -0.7 82
2019-11-23 04:00:00 19.9 10 Oeste 18 Noroeste 0 1013.7 -0.7 83
2019-11-23 03:00:00 20.5 13 Noroeste 26 Noroeste 0 1014 -0.8 85
2019-11-23 02:00:00 20.3 14 Oeste 21 Oeste 0 1014.1 -0.7 84
2019-11-23 01:00:00 20.5 10 Oeste 17 Noroeste 0 1014.4 -0.2 82
2019-11-23 00:00:00 20.3 10 Oeste 24 Oeste 0 1014.8 0.6 84
2019-11-22 23:00:00 20.4 10 Oeste 21 Oeste 0 1014.8 1.3 85
2019-11-22 22:00:00 20.9 15 Oeste 26 Oeste 0 1014.6 1.6 79
2019-11-22 21:00:00 20.4 13 Oeste 32 Oeste 0 1014.2 1.9 77
2019-11-22 20:00:00 20.8 24 Oeste 35 Oeste 0 1013.5 1.5 74
2019-11-22 19:00:00 20.9 21 Noroeste 35 Oeste 0 1013 1.1 72
2019-11-22 18:00:00 21.7 19 Oeste 35 Oeste 0 1012.3 0.4 69
2019-11-22 17:00:00 23.1 20 Oeste 30 Oeste 0 1012 -0.5 61
2019-11-22 16:00:00 24.3 19 Oeste 33 Oeste 0 1011.9 -1.2 57
2019-11-22 15:00:00 24.4 21 Oeste 33 Noroeste 0 1011.9 -1.6 55
2019-11-22 14:00:00 25.2 19 Noroeste 42 Oeste 0 1012.5 -1.4 56
2019-11-22 13:00:00 24.2 22 Noroeste 41 Noroeste 0 1013.1 -0.6 62
2019-11-22 12:00:00 24.2 17 Noroeste 26 Noroeste 0 1013.5 0.6 62
2019-11-22 11:00:00 23.1 13 Norte 26 Norte 0 1013.9 1.8 70
2019-11-22 10:00:00 22 16 Noroeste 28 Noroeste 0 1013.7 2.3 78
2019-11-22 09:00:00 20.8 5 Noroeste 30 Sudoeste 0 1012.9 2.3 82
2019-11-22 08:00:00 20.3 14 Oeste 18 Sudoeste 0 1012.1 1.4 81
2019-11-22 07:00:00 19.7 4 Oeste 13 Sur 0 1011.4 0.4 79
2019-11-22 06:00:00 19 9 Sur 13 Sur 0 1010.6 -0.6 81
2019-11-22 05:00:00 18.6 9 Sur 13 Sur 0 1010.7 -0.8 80
2019-11-22 04:00:00 19.4 6 Sudeste 13 Nordeste 0 1011 -0.9 81
2019-11-22 03:00:00 19.2 11 Sur 15 Sudoeste 0 1011.2 -1 77
2019-11-22 02:00:00 19.3 12 Sudoeste 17 Sudoeste 0 1011.5 -0.7 77
2019-11-22 01:00:00 19.3 12 Sudoeste 18 Sudoeste 0 1011.9 -0.2 79
2019-11-22 00:00:00 18.8 10 Oeste 13 Sudoeste 0 1012.2 0.2 76
2019-11-21 23:00:00 18.8 8 Sudoeste 13 Oeste 0 1012.2 0.3 75
2019-11-21 22:00:00 19.4 13 Oeste 26 Oeste 0 1012.1 0.3 73
2019-11-21 21:00:00 20 9 Oeste 22 Oeste 0 1012 0.8 69
2019-11-21 20:00:00 20.6 10 Sudoeste 26 Sudoeste 0 1011.9 1.1 67
2019-11-21 19:00:00 21.2 9 Oeste 32 Oeste 0 1011.8 0.8 62
2019-11-21 18:00:00 22 10 Oeste 37 Oeste 0 1011.2 0.5 62
2019-11-21 17:00:00 23 15 Oeste 32 Noroeste 0 1010.8 -0.3 59
2019-11-21 16:00:00 23.6 19 Oeste 39 Noroeste 0 1011 -1 56
2019-11-21 15:00:00 24 20 Noroeste 39 Noroeste 0 1010.7 -2.1 56
2019-11-21 14:00:00 22.7 14 Sur 35 Oeste 0 1011.1 -2.2 71
2019-11-21 13:00:00 22.5 17 Noroeste 45 Noroeste 0 1012 -1.5 63
2019-11-21 12:00:00 21.9 17 Oeste 37 Oeste 0 1012.8 -0.2 69
2019-11-21 11:00:00 21.1 10 Oeste 18 Noroeste 0 1013.3 0.7 78
2019-11-21 10:00:00 20.5 14 Oeste 26 Oeste 0 1013.5 1.3 84
2019-11-21 09:00:00 19.7 10 Sudoeste 17 Sudoeste 0 1013 1 83
2019-11-21 08:00:00 18.6 7 Sudoeste 13 Oeste 0 1012.6 0.5 85
2019-11-21 07:00:00 -- -- -- -- -- -- -- -- --
2019-11-21 06:00:00 -- -- -- -- -- -- -- -- --
2019-11-21 05:00:00 -- -- -- -- -- -- -- -- --
2019-11-21 04:00:00 -- -- -- -- -- -- -- -- --
2019-11-21 03:00:00 -- -- -- -- -- -- -- -- --
2019-11-21 02:00:00 -- -- -- -- -- -- -- -- --
2019-11-21 01:00:00 -- -- -- -- -- -- -- -- --
2019-11-21 00:00:00 -- -- -- -- -- -- -- -- --
2019-11-20 23:00:00 -- -- -- -- -- -- -- -- --
2019-11-20 22:00:00 -- -- -- -- -- -- -- -- --
2019-11-20 21:00:00 -- -- -- -- -- -- -- -- --
2019-11-20 20:00:00 20.7 28 Oeste 33 Oeste 0 1013.4 1.2 72
2019-11-20 19:00:00 21.2 7 Oeste 21 Noroeste 0 1013.1 0.9 70
2019-11-20 18:00:00 21.6 13 Oeste 32 Oeste 0 1012.7 0.5 67
2019-11-20 17:00:00 22.7 19 Noroeste 33 Oeste 0 1012.2 -0.4 64
2019-11-20 16:00:00 23.2 24 Noroeste 33 Noroeste 0 1012.2 -1 62
2019-11-20 15:00:00 23.3 20 Oeste 39 Oeste 0 1012.2 -1.9 61
2019-11-20 14:00:00 23.8 20 Oeste 41 Oeste 0 1012.6 -2.2 57
2019-11-20 13:00:00 22.8 19 Oeste 35 Oeste 0 1013.2 -1.8 62
2019-11-20 12:00:00 21.8 5 Sudoeste 24 Oeste 0 1014.1 -0.7 74
2019-11-20 11:00:00 21.5 15 Sudoeste 28 Sudoeste 0 1014.8 0.4 74
2019-11-20 10:00:00 19.7 10 Sur 24 Sudoeste 0 1015 0.8 86
2019-11-20 09:00:00 17.8 12 Sudoeste 17 Sudoeste 0 1014.8 1 91
2019-11-20 08:00:00 17.3 6 Sudoeste 15 Sudoeste 0 1014.4 0.4 90
2019-11-20 07:00:00 16.5 6 Sudoeste 9 Oeste 0 1014.2 0.2 90
2019-11-20 06:00:00 17.4 4 Sudoeste 9 Oeste 0.5 1013.8 -0.4 89
2019-11-20 05:00:00 17.5 5 Sudoeste 18 Oeste 0 1014 -0.3 89
2019-11-20 04:00:00 16.8 5 Oeste 9 Oeste 0 1014 -0.5 81
2019-11-20 03:00:00 15.9 5 Oeste -- -- 0 1014.2 -0.7 83
2019-11-20 02:00:00 16.7 9 Oeste 13 Oeste 0 1014.3 -0.7 82
2019-11-20 01:00:00 16.4 6 Oeste 9 Oeste 0 1014.5 -0.7 79
2019-11-20 00:00:00 17.1 7 Oeste 9 Oeste 0 1014.9 -0.3 78
2019-11-19 23:00:00 18.2 8 Noroeste 13 Norte 0 1015 0.2 77
2019-11-19 22:00:00 19 10 Norte 17 Noroeste 0 1015.2 0.6 75
2019-11-19 21:00:00 18.5 13 Norte 17 Norte 0 1015.2 0.8 75
2019-11-19 20:00:00 19.3 12 Norte 22 Norte 0 1014.8 0.6 73
2019-11-19 19:00:00 19.6 18 Norte 28 Nordeste 0 1014.6 0.4 74
2019-11-19 18:00:00 20.4 24 Norte 30 Norte 0 1014.4 0.3 70
2019-11-19 17:00:00 22 23 Norte 32 Norte 0 1014.2 -0.4 60
2019-11-19 16:00:00 22.9 25 Norte 39 Norte 0 1014.2 -1.2 56
2019-11-19 15:00:00 23.9 22 Norte 35 Norte 0 1014.1 -1.9 51
2019-11-19 14:00:00 23.6 21 Norte 33 Noroeste 0 1014.6 -1.9 48
2019-11-19 13:00:00 23.4 22 Norte 37 Norte 0 1015.4 -1.1 52
2019-11-19 12:00:00 22.9 24 Norte 33 Norte 0 1016 -0.2 63
2019-11-19 11:00:00 22 22 Norte 35 Noroeste 0 1016.5 0.5 65
2019-11-19 10:00:00 21.4 23 Norte 32 Norte 0 1016.5 0.9 69
2019-11-19 09:00:00 19.9 18 Norte 30 Norte 0 1016.2 0.9 79
2019-11-19 08:00:00 18.2 14 Noroeste 24 Noroeste 0 1016 0.5 83
2019-11-19 07:00:00 18.3 10 Noroeste 15 Noroeste 0 1015.6 0.1 84
2019-11-19 06:00:00 18.1 9 Oeste 15 Oeste 0.2 1015.3 -0.6 87
2019-11-19 05:00:00 17.9 11 Norte 15 Norte 0 1015.5 -0.9 86
2019-11-19 04:00:00 16.6 11 Noroeste 13 Noroeste 0 1015.5 -1.4 81
2019-11-19 03:00:00 16 9 Oeste 13 Oeste 0 1015.9 -1.5 80
2019-11-19 02:00:00 16.7 10 Noroeste 13 Oeste 0 1016.4 -1.2 80
2019-11-19 01:00:00 16.8 9 Oeste 11 Oeste 0 1016.9 -0.7 78
2019-11-19 00:00:00 17.6 9 Noroeste -- -- 0 1017.4 -0.2 75
2019-11-18 23:00:00 17 9 Noroeste 15 Noroeste 0 1017.6 0.2 75
2019-11-18 22:00:00 17.8 11 Noroeste 22 Noroeste 0 1017.6 0.6 73
2019-11-18 21:00:00 18.2 9 Noroeste 13 Noroeste 0 1017.6 0.6 76
2019-11-18 20:00:00 18.6 10 Norte 18 Nordeste 0 1017.4 0.4 78
2019-11-18 19:00:00 18.9 14 Nordeste 18 Nordeste 0 1017 0.1 76
2019-11-18 18:00:00 19.3 12 Nordeste 17 Nordeste 0 1017 0.2 73
2019-11-18 17:00:00 19.8 12 Nordeste 18 Nordeste 0 1017 -0.2 70
2019-11-18 16:00:00 20.3 12 Nordeste 17 Nordeste 0 1016.9 -1 69
2019-11-18 15:00:00 20.5 12 Nordeste 21 Nordeste 0 1016.8 -2 68
2019-11-18 14:00:00 20.8 14 Nordeste 24 Nordeste 0 1017.2 -2.1 66
2019-11-18 13:00:00 20.4 17 Nordeste 26 Nordeste 0 1017.9 -1.4 66
2019-11-18 12:00:00 20.9 19 Nordeste 28 Nordeste 0 1018.8 -0.2 64
2019-11-18 11:00:00 20.7 20 Nordeste 30 Nordeste 0 1019.3 0.8 64
2019-11-18 10:00:00 19.9 21 Nordeste 30 Nordeste 0 1019.3 1.3 68
2019-11-18 09:00:00 18.8 21 Nordeste 30 Nordeste 0 1019 1.4 70
2019-11-18 08:00:00 18 22 Nordeste 32 Nordeste 0 1018.5 1 74
2019-11-18 07:00:00 17.9 26 Nordeste 35 Nordeste 0 1018 0.4 74
2019-11-18 06:00:00 17.8 27 Nordeste 35 Nordeste 0 1017.6 0 74
2019-11-18 05:00:00 17.7 27 Nordeste 37 Nordeste 0 1017.5 -0.2 74
2019-11-18 04:00:00 17.7 30 Nordeste 37 Nordeste 0 1017.6 -0.3 73
2019-11-18 03:00:00 17.8 29 Nordeste 37 Nordeste 0 1017.6 -0.6 74
2019-11-18 02:00:00 17.7 29 Nordeste 39 Nordeste 0 1017.7 -0.6 74
2019-11-18 01:00:00 17.3 26 Norte 33 Norte 0 1017.9 -0.3 75
2019-11-18 00:00:00 16.5 18 Norte 35 Norte 0 1018.2 0.2 71
2019-11-17 23:00:00 16.8 22 Norte 35 Norte 0 1018.3 0.5 68
2019-11-17 22:00:00 17.2 26 Norte 35 Norte 0 1018.2 0.8 69
2019-11-17 21:00:00 17.7 27 Norte 42 Norte 0 1018 1 69
2019-11-17 20:00:00 18 31 Nordeste 41 Norte 0 1017.8 1.1 69
2019-11-17 19:00:00 18.1 26 Nordeste 33 Nordeste 0 1017.4 0.6 68
2019-11-17 18:00:00 18.5 25 Nordeste 33 Nordeste 0 1017 0.2 66
2019-11-17 17:00:00 19.2 24 Nordeste 33 Nordeste 0 1016.7 -0.5 62
2019-11-17 16:00:00 19.9 26 Nordeste 37 Nordeste 0 1016.8 -1.2 58
2019-11-17 15:00:00 20.2 27 Nordeste 39 Nordeste 0 1016.8 -2.2 59
2019-11-17 14:00:00 20.6 29 Nordeste 41 Nordeste 0 1017.2 -2.3 58
2019-11-17 13:00:00 20.8 31 Nordeste 45 Nordeste 0 1018 -1.3 58
2019-11-17 12:00:00 20.7 34 Nordeste 45 Nordeste 0 1019 0.3 57
2019-11-17 11:00:00 20.4 33 Nordeste 46 Nordeste 0 1019.5 1.5 60
2019-11-17 10:00:00 19.7 35 Nordeste 46 Nordeste 0 1019.3 2 62
2019-11-17 09:00:00 19.2 34 Nordeste 46 Nordeste 0 1018.7 1.8 64
2019-11-17 08:00:00 18.4 32 Nordeste 48 Nordeste 0 1018 1.3 64
2019-11-17 07:00:00 18.3 37 Nordeste 48 Nordeste 0 1017.3 0.5 60
2019-11-17 06:00:00 17.9 32 Nordeste 52 Nordeste 0 1016.9 0.4 68
2019-11-17 05:00:00 18.3 38 Nordeste 50 Nordeste 0 1016.7 0.2 63
2019-11-17 04:00:00 17.9 36 Norte 50 Norte 0 1016.8 0.2 70
2019-11-17 03:00:00 18.1 35 Norte 50 Norte 0 1016.5 -0.2 65
2019-11-17 02:00:00 17.9 31 Norte 48 Norte 0 1016.5 -0.3 64
2019-11-17 01:00:00 18.1 37 Norte 54 Nordeste 0 1016.6 0 66
2019-11-17 00:00:00 18.2 45 Norte 54 Norte 0 1016.7 0.2 65
2019-11-16 23:00:00 18.1 33 Norte 54 Norte 0 1016.8 0.5 62
2019-11-16 22:00:00 18.1 36 Norte 50 Nordeste 0 1016.6 0.6 66
2019-11-16 21:00:00 18.3 35 Norte 55 Nordeste 0 1016.5 1.4 69
2019-11-16 20:00:00 18.3 37 Norte 52 Nordeste 0 1016.3 1.4 69
2019-11-16 19:00:00 18.4 44 Nordeste 58 Norte 0 1016 1.4 72
2019-11-16 18:00:00 18.8 36 Norte 55 Nordeste 0 1015.1 0.5 65
2019-11-16 17:00:00 19.2 39 Norte 55 Nordeste 0 1014.9 0 66
2019-11-16 16:00:00 20 46 Nordeste 59 Nordeste 0 1014.6 -0.8 69
2019-11-16 15:00:00 20.7 41 Nordeste 50 Nordeste 0 1014.6 -1.2 62
2019-11-16 14:00:00 21.1 37 Nordeste 50 Nordeste 0 1014.9 -1.4 64
2019-11-16 13:00:00 20.5 32 Norte 59 Norte 0 1015.4 -0.8 60
2019-11-16 12:00:00 22 37 Nordeste 50 Norte 0 1015.8 0 53
2019-11-16 11:00:00 21.4 41 Norte 52 Norte 0 1016.3 1.1 54
2019-11-16 10:00:00 20.4 35 Nordeste 45 Norte 0 1016.2 1.7 58
2019-11-16 09:00:00 18.9 26 Norte 42 Norte 0 1015.8 1.9 64
2019-11-16 08:00:00 17.3 24 Norte 33 Norte 0 1015.2 1.5 65
2019-11-16 07:00:00 17.1 23 Norte 35 Norte 0 1014.5 0.9 69
2019-11-16 06:00:00 16.9 24 Norte 41 Norte 0 1013.9 0.1 73
2019-11-16 05:00:00 17.2 27 Norte 37 Norte 0 1013.7 -0.4 69
2019-11-16 04:00:00 17.2 26 Norte 37 Norte 0 1013.6 -0.7 65
2019-11-16 03:00:00 17 26 Norte 33 Norte 0 1013.8 -0.6 64
2019-11-16 02:00:00 16.6 17 Norte 42 Norte 0 1014.1 -0.2 72
2019-11-16 01:00:00 17 23 Norte 30 Norte 0 1014.3 0.2 70
2019-11-16 00:00:00 16.9 19 Norte 55 Norte 0 1014.4 0.6 76
2019-11-15 23:00:00 17.5 23 Norte 35 Norte 0 1014.3 0.9 66
2019-11-15 22:00:00 17.5 23 Norte 30 Norte 0 1014.1 1.2 65
2019-11-15 21:00:00 17.8 22 Norte 37 Norte 0 1013.8 1.1 65
2019-11-15 20:00:00 18.3 28 Norte 39 Norte 0 1013.4 0.7 65
2019-11-15 19:00:00 18.6 30 Norte 50 Norte 0 1012.9 0.2 67
2019-11-15 18:00:00 19.1 35 Norte 54 Nordeste 0 1012.7 0.2 62
2019-11-15 17:00:00 19.1 34 Nordeste 58 Nordeste 0 1012.7 -0.2 71
2019-11-15 16:00:00 20.5 36 Nordeste 52 Nordeste 0 1012.7 -0.8 66
2019-11-15 15:00:00 21.1 35 Nordeste 50 Nordeste 0 1012.5 -1.6 61
2019-11-15 14:00:00 21.3 34 Nordeste 45 Nordeste 0 1012.9 -1.9 60
2019-11-15 13:00:00 21.6 34 Nordeste 48 Norte 0 1013.5 -1.3 59
2019-11-15 12:00:00 21.2 37 Nordeste 50 Norte 0 1014.1 0.2 60
2019-11-15 11:00:00 19.7 25 Nordeste 46 Norte 0 1014.8 1.4 74
2019-11-15 10:00:00 18.1 33 Norte 50 Norte 0.4 1014.8 2.1 86
2019-11-15 09:00:00 19 25 Norte 35 Norte 0 1013.9 1.7 77
2019-11-15 08:00:00 18 35 Norte 54 Norte 0.1 1013.4 1.3 86
2019-11-15 07:00:00 18.9 21 Norte 32 Norte 0 1012.7 0.3 73
2019-11-15 06:00:00 19.4 20 Norte 35 Norte 0 1012.2 -0.6 70
2019-11-15 05:00:00 19.1 15 Norte 26 Norte 0 1012.1 -1.4 68
2019-11-15 04:00:00 18.8 19 Norte 24 Norte 0 1012.4 -1.5 65
2019-11-15 03:00:00 19.4 24 Norte 37 Norte 0 1012.8 -1.4 64
2019-11-15 02:00:00 19.8 31 Norte 55 Nordeste 0 1013.5 -0.9 67
2019-11-15 01:00:00 20.1 38 Nordeste 50 Nordeste 0 1013.9 -0.2 66
2019-11-15 00:00:00 19.9 38 Norte 50 Norte 0 1014.2 0.4 63
2019-11-14 23:00:00 20.1 30 Norte 45 Norte 0 1014.4 1.1 63
2019-11-14 22:00:00 20.2 34 Norte 46 Norte 0 1014.1 0.9 64
2019-11-14 21:00:00 20.1 33 Nordeste 48 Nordeste 0 1013.8 0.7 73
2019-11-14 20:00:00 20.3 40 Nordeste 50 Nordeste 0 1013.3 0.6 76
2019-11-14 19:00:00 20.5 39 Nordeste 48 Nordeste 0 1013.2 0.3 75
2019-11-14 18:00:00 20.9 29 Nordeste 39 Nordeste 0 1013.1 0.3 77
2019-11-14 17:00:00 21.3 30 Nordeste 45 Nordeste 0 1012.7 -0.5 72
2019-11-14 16:00:00 21.7 28 Nordeste 42 Nordeste 0 1012.9 -0.9 68
2019-11-14 15:00:00 22.2 31 Nordeste 41 Nordeste 0 1012.8 -1.6 66
2019-11-14 14:00:00 22.9 31 Nordeste 41 Nordeste 0 1013.2 -1.6 65
2019-11-14 13:00:00 23.1 36 Nordeste 46 Nordeste 0 1013.8 -0.9 63
2019-11-14 12:00:00 22.6 33 Nordeste 45 Nordeste 0 1014.4 0.1 71
2019-11-14 11:00:00 21.8 31 Nordeste 41 Nordeste 0 1014.8 1.1 72
2019-11-14 10:00:00 21.1 32 Nordeste 42 Nordeste 0 1014.7 1.8 75
2019-11-14 09:00:00 20.4 31 Nordeste 42 Nordeste 0 1014.3 1.8 76
2019-11-14 08:00:00 19.8 31 Nordeste 42 Nordeste 0 1013.7 1.2 78
2019-11-14 07:00:00 19.8 35 Nordeste 46 Nordeste 0 1012.9 0.5 79
2019-11-14 06:00:00 19.5 35 Norte 45 Norte 0 1012.5 -0.2 79
2019-11-14 05:00:00 19.2 26 Norte 41 Norte 0 1012.5 -0.6 77
2019-11-14 04:00:00 19.3 29 Norte 41 Norte 0 1012.4 -1.3 77
2019-11-14 03:00:00 19.4 32 Norte 45 Nordeste 0 1012.7 -1.4 75
2019-11-14 02:00:00 18.6 17 Norte 42 Norte 0 1013.1 -0.9 75
2019-11-14 01:00:00 19.4 33 Norte 48 Norte 0 1013.7 -0.3 73
2019-11-14 00:00:00 19.5 38 Norte 48 Nordeste 0 1014.1 0.3 72
2019-11-13 23:00:00 19.6 40 Norte 54 Nordeste 0 1014 0.1 71
2019-11-13 22:00:00 19.7 39 Norte 50 Norte 0 1014 0.5 72
2019-11-13 21:00:00 19.8 38 Norte 52 Norte 0 1013.8 0.6 72
2019-11-13 20:00:00 20 40 Norte 50 Norte 0 1013.9 0.8 72
2019-11-13 19:00:00 20.1 36 Norte 52 Norte 0 1013.5 0.8 71
2019-11-13 18:00:00 20.7 37 Norte 50 Norte 0 1013.2 0.7 68
2019-11-13 17:00:00 22 40 Norte 55 Norte 0 1013.1 0.1 65
2019-11-13 16:00:00 23.2 42 Norte 55 Norte 0 1012.7 -1 59
2019-11-13 15:00:00 22.9 36 Nordeste 50 Nordeste 0 1012.5 -2.1 68
2019-11-13 14:00:00 23 36 Nordeste 46 Nordeste 0 1013 -2.2 66
2019-11-13 13:00:00 22.8 42 Nordeste 55 Nordeste 0 1013.7 -1.4 64
2019-11-13 12:00:00 22.8 43 Nordeste 54 Nordeste 0 1014.6 -0.1 68
2019-11-13 11:00:00 22.6 41 Nordeste 59 Norte 0 1015.2 1 66
2019-11-13 10:00:00 21.8 48 Norte 61 Norte 0 1015.1 1.8 67
2019-11-13 09:00:00 20.7 43 Norte 58 Norte 0 1014.7 1.7 74
2019-11-13 08:00:00 19.6 37 Norte 55 Norte 0 1014.2 1.8 76
2019-11-13 07:00:00 18.8 31 Norte 42 Norte 0 1013.3 1.2 79
2019-11-13 06:00:00 18.9 32 Norte 45 Norte 0 1013 0.5 78
2019-11-13 05:00:00 19.1 36 Norte 48 Norte 0 1012.4 -0.3 75
2019-11-13 04:00:00 19 29 Norte 39 Norte 0 1012.1 -1.3 76
2019-11-13 03:00:00 18.9 23 Norte 41 Norte 0 1012.5 -1.5 77
2019-11-13 02:00:00 19.1 29 Norte 37 Norte 0 1012.7 -1.2 78
2019-11-13 01:00:00 19.3 26 Norte 33 Norte 0 1013.4 -0.5 72
2019-11-13 00:00:00 19.2 16 Norte 30 Norte 0 1014 0.1 69
2019-11-12 23:00:00 19.5 26 Norte 37 Norte 0 1013.9 0.3 71
2019-11-12 22:00:00 19.5 25 Norte 32 Norte 0 1013.9 0.5 71
2019-11-12 21:00:00 19.6 21 Norte 33 Norte 0 1013.9 0.8 70
2019-11-12 20:00:00 20.1 27 Norte 41 Norte 0 1013.6 0.7 71
2019-11-12 19:00:00 20.4 27 Norte 45 Norte 0 1013.4 0.5 70
2019-11-12 18:00:00 21.3 35 Norte 50 Norte 0 1013.1 0.4 66
2019-11-12 17:00:00 22.4 39 Norte 52 Norte 0 1012.9 -0.7 64
2019-11-12 16:00:00 23.4 41 Norte 52 Norte 0 1012.9 -1.4 63
2019-11-12 15:00:00 24.1 42 Nordeste 54 Norte 0 1012.7 -2.4 60
2019-11-12 14:00:00 24.3 45 Norte 55 Norte 0 1013.6 -2.3 59
2019-11-12 13:00:00 23.7 33 Nordeste 48 Nordeste 0 1014.3 -1.1 70
2019-11-12 12:00:00 24 36 Norte 50 Norte 0 1015.1 0.3 67
2019-11-12 11:00:00 22.2 36 Nordeste 54 Nordeste -- 1015.9 1.6 76
2019-11-12 10:00:00 22.4 37 Nordeste 55 Norte 0 1015.4 1.3 74
2019-11-12 09:00:00 21.4 48 Norte 65 Norte 0 1014.8 0.6 78
2019-11-12 08:00:00 21.2 44 Norte 59 Norte 0 1014.3 0.3 80
2019-11-12 07:00:00 20.8 45 Norte 58 Norte 0 1014.1 0.1 79
2019-11-12 06:00:00 20.7 46 Norte 65 Norte 0 1014.2 -0.1 79
2019-11-12 05:00:00 20.9 36 Norte 52 Nordeste 0 1014 -1 80
2019-11-12 04:00:00 20.4 40 Norte 54 Norte 0 1014 -1.4 77
2019-11-12 03:00:00 20 35 Norte 54 Norte 0 1014.3 -1.6 77
2019-11-12 02:00:00 20 29 Norte 55 Norte 0 1015 -1.1 75
2019-11-12 01:00:00 20.2 38 Norte 59 Norte 0 1015.4 -0.9 73
2019-11-12 00:00:00 20.1 25 Norte 50 Norte 0 1015.9 -0.3 73
2019-11-11 23:00:00 20.4 40 Norte 55 Norte 0 1016.1 0 73
2019-11-11 22:00:00 20.6 31 Norte 55 Norte 0 1016.3 0.1 74
2019-11-11 21:00:00 20.7 37 Norte 54 Norte 0 1016.2 0.6 75
2019-11-11 20:00:00 20.7 41 Norte 59 Norte 0 1016.1 0.8 72
2019-11-11 19:00:00 20.9 42 Norte 61 Norte 0 1016.2 0.8 72
2019-11-11 18:00:00 21.3 48 Norte 65 Nordeste 0 1015.6 -0.3 71
2019-11-11 17:00:00 22.1 53 Norte 76 Norte 0 1015.3 -1.1 68
2019-11-11 16:00:00 23 51 Norte 71 Norte 0 1015.4 -1.9 65
2019-11-11 15:00:00 23.7 51 Norte 71 Norte 0 1015.9 -2.6 61
2019-11-11 14:00:00 23.9 52 Norte 68 Norte 0 1016.4 -2.6 58
2019-11-11 13:00:00 24 50 Norte 65 Norte 0 1017.3 -1.9 58
2019-11-11 12:00:00 23.6 47 Norte 63 Norte 0 1018.5 -1.2 59
2019-11-11 11:00:00 23.1 48 Nordeste 65 Norte 0 1019 -0.4 61
2019-11-11 10:00:00 22.2 53 Norte 67 Norte 0 1019.2 0.5 63
2019-11-11 09:00:00 21.2 48 Norte 63 Norte 0 1019.7 1.4 67
2019-11-11 08:00:00 20 41 Norte 67 Norte 0 1019.4 1.1 69
2019-11-11 07:00:00 19.8 55 Norte 71 Nordeste 0 1018.7 0 70
2019-11-11 06:00:00 19.9 44 Norte 59 Norte 0 1018.3 -1.2 74
2019-11-11 05:00:00 19.9 40 Norte 55 Norte 0 1018.3 -1.4 74
2019-11-11 04:00:00 19.8 37 Norte 58 Norte 0 1018.7 -1.4 70
2019-11-11 03:00:00 19.8 44 Norte 58 Norte 0 1019.5 -0.8 67
2019-11-11 02:00:00 19.8 39 Norte 54 Norte 0 1019.7 -0.9 66
2019-11-11 01:00:00 20.1 42 Norte 55 Nordeste 0 1020.1 -0.6 71
2019-11-11 00:00:00 20.2 41 Nordeste 52 Nordeste 0 1020.3 -0.3 70
2019-11-10 23:00:00 20.3 37 Norte 59 Norte 0 1020.6 0.2 69
2019-11-10 22:00:00 20.6 42 Nordeste 58 Norte 0 1020.7 0.8 73
2019-11-10 21:00:00 20.3 37 Norte 55 Norte 0 1020.6 1 68
2019-11-10 20:00:00 20.3 39 Nordeste 50 Nordeste 0 1020.4 1 72
2019-11-10 19:00:00 20.4 40 Norte 50 Norte 0 1019.9 0.5 71
2019-11-10 18:00:00 20.8 42 Nordeste 54 Nordeste 0 1019.6 0.4 77
2019-11-10 17:00:00 21.6 37 Nordeste 50 Nordeste 0 1019.4 -0.7 76
2019-11-10 16:00:00 22.5 35 Nordeste 48 Nordeste 0 1019.4 -1 72
2019-11-10 15:00:00 22.7 33 Nordeste 48 Nordeste 0 1019.2 -1.9 69
2019-11-10 14:00:00 22.4 39 Nordeste 54 Nordeste 0 1020.1 -1.3 69
2019-11-10 13:00:00 22.5 45 Nordeste 55 Nordeste 0 1020.4 -0.9 68
2019-11-10 12:00:00 22.5 43 Nordeste 55 Nordeste 0 1021.1 0.2 64
2019-11-10 11:00:00 22.1 40 Nordeste 55 Nordeste 0 1021.4 1.2 65
2019-11-10 10:00:00 20.9 44 Nordeste 58 Nordeste 0 1021.3 1.7 67
2019-11-10 09:00:00 20.2 40 Nordeste 54 Nordeste 0 1020.9 2 70
2019-11-10 08:00:00 19.4 43 Nordeste 58 Nordeste 0 1020.2 1.3 71
2019-11-10 07:00:00 19.2 41 Nordeste 55 Nordeste 0 1019.6 0.8 73
2019-11-10 06:00:00 19.2 43 Nordeste 55 Nordeste 0 1018.9 -0.2 71
2019-11-10 05:00:00 19.3 42 Nordeste 59 Nordeste 0 1018.9 -0.5 70
2019-11-10 04:00:00 19.5 45 Nordeste 61 Nordeste 0 1018.8 -0.7 73
2019-11-10 03:00:00 19.6 46 Norte 61 Nordeste 0 1019.1 -0.7 71
2019-11-10 02:00:00 19.6 44 Nordeste 58 Norte 0 1019.4 -0.5 71
2019-11-10 01:00:00 19.9 43 Nordeste 58 Nordeste 0 1019.5 -0.2 71
2019-11-10 00:00:00 19.8 41 Nordeste 59 Norte 0 1019.8 0.6 73
2019-11-09 23:00:00 19.7 44 Nordeste 58 Nordeste 0 1019.9 1.1 73
2019-11-09 22:00:00 19.7 45 Nordeste 58 Nordeste 0 1019.7 1.1 74
2019-11-09 21:00:00 19.9 47 Nordeste 58 Nordeste 0 1019.2 1.2 73
2019-11-09 20:00:00 19.9 43 Nordeste 61 Nordeste 0 1018.8 1.4 72
2019-11-09 19:00:00 20.2 46 Nordeste 58 Nordeste 0 1018.6 1.2 71
2019-11-09 18:00:00 20.4 46 Nordeste 63 Nordeste 0 1018 0.5 66
2019-11-09 17:00:00 21 48 Nordeste 63 Nordeste 0 1017.4 -0.4 64
2019-11-09 16:00:00 21.6 50 Nordeste 61 Nordeste 0 1017.4 -1.2 62
2019-11-09 15:00:00 22.1 46 Nordeste 61 Nordeste 0 1017.5 -1.7 62
2019-11-09 14:00:00 22.5 42 Nordeste 65 Nordeste 0 1017.8 -1.5 60
2019-11-09 13:00:00 22.4 48 Nordeste 63 Nordeste 0 1018.6 -0.6 57
2019-11-09 12:00:00 21.9 49 Nordeste 63 Nordeste 0 1019.2 0.9 60
2019-11-09 11:00:00 21.4 46 Nordeste 58 Nordeste 0 1019.3 1.7 62
2019-11-09 10:00:00 21.1 41 Nordeste 55 Norte 0 1019.2 2 63
2019-11-09 09:00:00 20.8 43 Norte 63 Norte 0 1018.3 1.6 60
2019-11-09 08:00:00 20.1 44 Norte 63 Norte 0 1017.6 1 65
2019-11-09 07:00:00 19.4 40 Norte 63 Nordeste 0 1017.2 0.5 79
2019-11-09 06:00:00 19.6 37 Norte 52 Norte 0 1016.7 -0.2 74
2019-11-09 05:00:00 20.2 35 Norte 54 Norte 0 1016.6 -0.7 70
2019-11-09 04:00:00 20.1 44 Norte 55 Nordeste 0 1016.7 -1 66
2019-11-09 03:00:00 20.3 35 Norte 55 Norte 0 1016.9 -1 69
2019-11-09 02:00:00 20.2 41 Norte 58 Nordeste 0 1017.3 -0.6 67
2019-11-09 01:00:00 20.1 38 Norte 54 Norte 0 1017.7 0.1 67
2019-11-09 00:00:00 20 42 Norte 58 Norte 0 1017.9 0.7 67
2019-11-08 23:00:00 20 44 Norte 58 Norte 0 1017.9 1.1 66
2019-11-08 22:00:00 20.2 44 Nordeste 61 Nordeste 0 1017.6 1.1 66
2019-11-08 21:00:00 20.4 42 Norte 59 Nordeste 0 1017.2 1.1 65
2019-11-08 20:00:00 20.7 45 Nordeste 58 Norte 0 1016.8 1.1 69
2019-11-08 19:00:00 20.5 46 Nordeste 63 Nordeste 0 1016.5 1 66
2019-11-08 18:00:00 20.8 48 Nordeste 61 Nordeste 0 1016.1 0.9 67
2019-11-08 17:00:00 21.5 47 Nordeste 63 Nordeste 0 1015.7 0.2 64
2019-11-08 16:00:00 22 48 Nordeste 63 Nordeste 0 1015.5 -0.3 62
2019-11-08 15:00:00 22.3 48 Nordeste 61 Nordeste 0 1015.2 -0.9 63
2019-11-08 14:00:00 22.5 47 Nordeste 63 Nordeste 0 1015.5 -0.8 60
2019-11-08 13:00:00 23.5 45 Nordeste 59 Nordeste 0 1015.8 -0.5 61
2019-11-08 12:00:00 23.1 41 Nordeste 58 Nordeste 0 1016.1 0.2 65
2019-11-08 11:00:00 22.5 39 Nordeste 50 Nordeste 0 1016.3 1 72
2019-11-08 10:00:00 21.9 42 Nordeste 54 Nordeste 0 1016.3 1.7 74
2019-11-08 09:00:00 21.6 41 Nordeste 52 Nordeste 0 1015.9 1.6 76
2019-11-08 08:00:00 21 40 Nordeste 50 Nordeste 0 1015.3 1.2 80
2019-11-08 07:00:00 20.9 36 Nordeste 50 Nordeste 0 1014.6 0.4 81
2019-11-08 06:00:00 20.8 40 Nordeste 58 Nordeste 0 1014.3 0.1 80
2019-11-08 05:00:00 20.8 44 Nordeste 55 Nordeste 0 1014.1 0 79
2019-11-08 04:00:00 20.9 40 Nordeste 48 Nordeste 0 1014.2 0 79
2019-11-08 03:00:00 20.8 36 Nordeste 46 Norte 0 1014.2 -0.2 79
2019-11-08 02:00:00 20.7 37 Nordeste 50 Nordeste 0 1014.1 -0.4 79
2019-11-08 01:00:00 20.8 37 Nordeste 46 Nordeste 0 1014.2 0 80
2019-11-08 00:00:00 20.9 36 Nordeste 52 Nordeste 0 1014.4 0.6 78
2019-11-07 23:00:00 21 37 Nordeste 55 Nordeste 0 1014.5 1.3 79
2019-11-07 22:00:00 20.9 41 Nordeste 55 Nordeste 0 1014.2 1.5 78
2019-11-07 21:00:00 20.8 43 Nordeste 58 Norte 0 1013.8 1.5 77
2019-11-07 20:00:00 20.7 41 Nordeste 52 Nordeste 0 1013.2 1.2 77
2019-11-07 19:00:00 20.8 43 Nordeste 54 Nordeste 0 1012.7 0.7 76
2019-11-07 18:00:00 20.9 38 Nordeste 55 Nordeste 0 1012.3 0.4 75
2019-11-07 17:00:00 21.5 44 Nordeste 58 Nordeste 0 1012 -0.4 71
2019-11-07 16:00:00 22.5 45 Nordeste 58 Nordeste 0 1012 -1.2 67
2019-11-07 15:00:00 22.9 48 Nordeste 58 Nordeste 0 1011.9 -2.2 67
2019-11-07 14:00:00 23.3 42 Nordeste 58 Nordeste 0 1012.4 -2.3 65
2019-11-07 13:00:00 23.3 39 Nordeste 54 Nordeste 0 1013.2 -0.9 64
2019-11-07 12:00:00 23.2 37 Nordeste 52 Nordeste 0 1014.1 0.4 65
2019-11-07 11:00:00 23 40 Nordeste 54 Nordeste 0 1014.7 1.4 63
2019-11-07 10:00:00 22.1 41 Nordeste 55 Norte 0 1014.1 1 65
2019-11-07 09:00:00 21.6 41 Nordeste 52 Nordeste 0 1013.7 0.8 68
2019-11-07 08:00:00 20.6 39 Nordeste 54 Nordeste 0 1013.3 0.7 70
2019-11-07 07:00:00 20.4 40 Norte 50 Norte 0 1013.1 0.6 72
2019-11-07 06:00:00 20.4 40 Nordeste 50 Nordeste 0 1012.9 0.4 71
2019-11-07 05:00:00 20 37 Norte 50 Norte 0 1012.6 -0.2 69
2019-11-07 04:00:00 20 42 Norte 55 Norte 0 1012.5 -1 68
2019-11-07 03:00:00 20.2 39 Nordeste 52 Nordeste 0 1012.5 -1.5 72
2019-11-07 02:00:00 20.5 34 Norte 46 Norte 0 1012.8 -1.6 72
2019-11-07 01:00:00 20 23 Norte 45 Norte 0 1013.5 -1.2 67
2019-11-07 00:00:00 20.4 34 Norte 50 Nordeste 0 1014 -0.6 66
2019-11-06 23:00:00 20.9 37 Norte 50 Nordeste 0 1014.4 -0.2 67
2019-11-06 22:00:00 21.1 40 Nordeste 50 Nordeste 0 1014.7 0.4 67
2019-11-06 21:00:00 20.5 25 Norte 55 Norte 0 1014.6 0.8 62
2019-11-06 20:00:00 20.9 40 Norte 54 Norte 0 1014.6 0.7 60
2019-11-06 19:00:00 21.4 37 Norte 54 Norte 0 1014.3 0.3 63
2019-11-06 18:00:00 21.7 46 Norte 55 Norte 0 1013.8 -0.6 65
2019-11-06 17:00:00 22.3 35 Norte 52 Nordeste 0 1013.9 -0.9 57
2019-11-06 16:00:00 22.9 39 Norte 50 Norte 0 1014 -1.5 58
2019-11-06 15:00:00 23.6 36 Norte 54 Nordeste 0 1014.4 -2 56
2019-11-06 14:00:00 24 34 Nordeste 48 Norte 0 1014.8 -2.1 54
2019-11-06 13:00:00 24.4 36 Nordeste 46 Nordeste 0 1015.5 -1.4 52
2019-11-06 12:00:00 24.5 35 Norte 48 Nordeste 0 1016.4 -0.6 48
2019-11-06 11:00:00 24 37 Nordeste 48 Norte 0 1016.9 0.4 51
2019-11-06 10:00:00 23.3 36 Norte 48 Nordeste 0 1016.9 0.6 55
2019-11-06 09:00:00 21 25 Norte 33 Norte 0 1017 0.8 64
2019-11-06 08:00:00 19.6 18 Norte 30 Norte 0 1016.5 0.4 65
2019-11-06 07:00:00 19.1 22 Norte 33 Norte 0 1016.3 0.1 67
2019-11-06 06:00:00 19.1 22 Norte 32 Norte 0 1016.2 -0.2 66
2019-11-06 05:00:00 19.8 22 Norte 41 Nordeste 0 1016.1 -0.8 67
2019-11-06 04:00:00 20 26 Norte 33 Norte 0 1016.2 -1.1 64
2019-11-06 03:00:00 19.6 23 Norte 45 Norte 0 1016.4 -1.5 60
2019-11-06 02:00:00 20.7 37 Norte 52 Norte 0 1016.9 -1.3 58
2019-11-06 01:00:00 20 22 Norte 32 Norte 0 1017.3 -1 69
2019-11-06 00:00:00 19.8 17 Norte 37 Norte 0 1017.9 0 68